Time,TemperatureF,DewpointF,PressureIn,WindDirection,WindDirectionDegrees,WindSpeedMPH,WindSpeedGustMPH,Humidity,HourlyPrecipIn,Conditions,Clouds,dailyrainin,SoftwareType,DateUTC
2013-01-03 00:02:00,22.0,14.0,30.19,WSW,250,0.0,1.0,71,-99.99,,,-99.99,,2013-01-03 06:02:00,
2013-01-03 00:12:00,21.0,13.0,30.19,West,265,0.0,1.0,71,-99.99,,,-99.99,,2013-01-03 06:12:00,
2013-01-03 00:22:00,21.0,13.0,30.19,West,265,0.0,1.0,71,-99.99,,,-99.99,,2013-01-03 06:22:00,
2013-01-03 00:32:00,21.0,14.0,30.18,South,170,0.0,1.0,72,-99.99,,,-99.99,,2013-01-03 06:32:00,
2013-01-03 00:42:00,21.0,14.0,30.18,SSW,195,2.0,2.0,72,-99.99,,,-99.99,,2013-01-03 06:42:00,
2013-01-03 00:52:00,21.0,14.0,30.18,SSW,195,2.0,2.0,72,-99.99,,,-99.99,,2013-01-03 06:52:00,
2013-01-03 01:02:00,21.0,13.0,30.17,WSW,250,0.0,1.0,73,-99.99,,,-99.99,,2013-01-03 07:02:00,
2013-01-03 01:12:00,21.0,14.0,30.17,West,275,0.0,1.0,74,-99.99,,,-99.99,,2013-01-03 07:12:00,
2013-01-03 01:22:00,21.0,14.0,30.17,West,275,0.0,1.0,74,-99.99,,,-99.99,,2013-01-03 07:22:00,
2013-01-03 01:33:00,20.0,14.0,30.17,ENE,65,0.0,0.0,74,-99.99,,,-99.99,,2013-01-03 07:33:00,
2013-01-03 01:42:00,20.0,13.0,30.17,West,280,0.0,2.0,74,-99.99,,,-99.99,,2013-01-03 07:42:00,
2013-01-03 01:52:00,20.0,13.0,30.17,West,280,0.0,2.0,74,-99.99,,,-99.99,,2013-01-03 07:52:00,
2013-01-03 02:02:00,20.0,14.0,30.18,WNW,285,0.0,1.0,76,-99.99,,,-99.99,,2013-01-03 08:02:00,
2013-01-03 02:12:00,20.0,14.0,30.18,West,275,0.0,0.0,76,-99.99,,,-99.99,,2013-01-03 08:12:00,
2013-01-03 02:22:00,20.0,14.0,30.18,West,275,0.0,0.0,76,-99.99,,,-99.99,,2013-01-03 08:22:00,
2013-01-03 02:32:00,20.0,14.0,30.19,South,170,0.0,1.0,75,-99.99,,,-99.99,,2013-01-03 08:32:00,
2013-01-03 02:42:00,21.0,15.0,30.19,ESE,115,0.0,1.0,76,-99.99,,,-99.99,,2013-01-03 08:42:00,
2013-01-03 02:53:00,21.0,15.0,30.19,ESE,115,0.0,1.0,76,-99.99,,,-99.99,,2013-01-03 08:53:00,
2013-01-03 03:02:00,22.0,15.0,30.19,WSW,250,0.0,2.0,72,-99.99,,,-99.99,,2013-01-03 09:02:00,
2013-01-03 03:12:00,24.0,15.0,30.19,NNE,25,1.0,3.0,69,-99.99,,,-99.99,,2013-01-03 09:12:00,
2013-01-03 03:22:00,24.0,15.0,30.19,NNE,25,1.0,3.0,69,-99.99,,,-99.99,,2013-01-03 09:22:00,
2013-01-03 03:33:00,24.0,15.0,30.19,NNW,340,2.0,5.0,66,-99.99,,,-99.99,,2013-01-03 09:33:00,
2013-01-03 03:43:00,24.0,14.0,30.20,North,0,2.0,4.0,65,-99.99,,,-99.99,,2013-01-03 09:43:00,
2013-01-03 03:52:00,24.0,14.0,30.20,North,0,2.0,4.0,65,-99.99,,,-99.99,,2013-01-03 09:52:00,
2013-01-03 04:02:00,25.0,15.0,30.20,North,350,3.0,5.0,65,-99.99,,,-99.99,,2013-01-03 10:02:00,
2013-01-03 04:12:00,25.0,15.0,30.19,NW,320,3.0,5.0,65,-99.99,,,-99.99,,2013-01-03 10:12:00,
2013-01-03 04:22:00,25.0,15.0,30.19,NW,320,3.0,5.0,65,-99.99,,,-99.99,,2013-01-03 10:22:00,
2013-01-03 04:33:00,25.0,15.0,30.19,NNW,330,4.0,7.0,65,-99.99,,,-99.99,,2013-01-03 10:33:00,
2013-01-03 04:42:00,25.0,15.0,30.19,NNW,330,4.0,7.0,65,-99.99,,,-99.99,,2013-01-03 10:42:00,
2013-01-03 04:52:00,25.0,15.0,30.19,NNW,330,4.0,7.0,65,-99.99,,,-99.99,,2013-01-03 10:52:00,
2013-01-03 05:02:00,25.0,15.0,30.20,NW,305,2.0,5.0,66,-99.99,,,-99.99,,2013-01-03 11:02:00,
2013-01-03 05:12:00,25.0,15.0,30.20,NW,305,3.0,4.0,66,-99.99,,,-99.99,,2013-01-03 11:12:00,
2013-01-03 05:22:00,25.0,15.0,30.20,NW,305,3.0,4.0,66,-99.99,,,-99.99,,2013-01-03 11:22:00,
2013-01-03 05:33:00,24.0,15.0,30.20,NW,310,2.0,3.0,67,-99.99,,,-99.99,,2013-01-03 11:33:00,
2013-01-03 05:43:00,24.0,14.0,30.20,WNW,295,2.0,4.0,67,-99.99,,,-99.99,,2013-01-03 11:43:00,
2013-01-03 05:53:00,24.0,14.0,30.20,WNW,295,2.0,4.0,67,-99.99,,,-99.99,,2013-01-03 11:53:00,
2013-01-03 06:03:00,23.0,15.0,30.21,WNW,295,2.0,4.0,71,-99.99,,,-99.99,,2013-01-03 12:03:00,
2013-01-03 06:12:00,23.0,15.0,30.21,WNW,290,2.0,4.0,70,-99.99,,,-99.99,,2013-01-03 12:12:00,
2013-01-03 06:22:00,23.0,15.0,30.21,WNW,290,2.0,4.0,70,-99.99,,,-99.99,,2013-01-03 12:22:00,
2013-01-03 06:33:00,22.0,15.0,30.22,ENE,75,0.0,0.0,72,-99.99,,,-99.99,,2013-01-03 12:33:00,
2013-01-03 06:42:00,23.0,15.0,30.22,SSE,155,0.0,0.0,73,-99.99,,,-99.99,,2013-01-03 12:42:00,
2013-01-03 06:52:00,23.0,15.0,30.22,SSE,155,0.0,0.0,73,-99.99,,,-99.99,,2013-01-03 12:52:00,
2013-01-03 07:02:00,22.0,15.0,30.23,WSW,245,0.0,2.0,74,-99.99,,,-99.99,,2013-01-03 13:02:00,
2013-01-03 07:13:00,21.0,15.0,30.24,SSW,195,2.0,2.0,75,-99.99,,,-99.99,,2013-01-03 13:13:00,
2013-01-03 07:22:00,21.0,15.0,30.24,SSW,195,2.0,2.0,75,-99.99,,,-99.99,,2013-01-03 13:22:00,
2013-01-03 07:33:00,22.0,16.0,30.25,SSW,200,2.0,3.0,76,-99.99,,,-99.99,,2013-01-03 13:33:00,
2013-01-03 07:42:00,22.0,15.0,30.25,South,190,2.0,4.0,75,-99.99,,,-99.99,,2013-01-03 13:42:00,
2013-01-03 07:52:00,22.0,15.0,30.25,South,190,2.0,4.0,75,-99.99,,,-99.99,,2013-01-03 13:52:00,
2013-01-03 08:03:00,22.0,16.0,30.26,SSW,210,2.0,4.0,76,-99.99,,,-99.99,,2013-01-03 14:03:00,
2013-01-03 08:12:00,22.0,15.0,30.26,SSW,200,2.0,3.0,76,-99.99,,,-99.99,,2013-01-03 14:12:00,
2013-01-03 08:23:00,22.0,15.0,30.26,SSW,200,2.0,3.0,76,-99.99,,,-99.99,,2013-01-03 14:23:00,
2013-01-03 08:33:00,22.0,16.0,30.26,SW,230,1.0,4.0,77,-99.99,,,-99.99,,2013-01-03 14:33:00,
2013-01-03 08:42:00,22.0,16.0,30.26,South,190,1.0,3.0,76,-99.99,,,-99.99,,2013-01-03 14:42:00,
2013-01-03 08:53:00,22.0,16.0,30.26,South,190,1.0,3.0,76,-99.99,,,-99.99,,2013-01-03 14:53:00,
2013-01-03 09:03:00,25.0,19.0,30.26,NW,305,4.0,7.0,76,-99.99,,,-99.99,,2013-01-03 15:03:00,
2013-01-03 09:12:00,26.0,19.0,30.27,WNW,285,5.0,7.0,74,-99.99,,,-99.99,,2013-01-03 15:12:00,
2013-01-03 09:22:00,26.0,19.0,30.27,WNW,285,5.0,7.0,74,-99.99,,,-99.99,,2013-01-03 15:22:00,
2013-01-03 09:33:00,28.0,20.0,30.28,WNW,285,5.0,8.0,71,-99.99,,,-99.99,,2013-01-03 15:33:00,
2013-01-03 09:43:00,28.0,20.0,30.28,West,280,4.0,9.0,71,-99.99,,,-99.99,,2013-01-03 15:43:00,
2013-01-03 09:53:00,28.0,20.0,30.28,West,280,4.0,9.0,71,-99.99,,,-99.99,,2013-01-03 15:53:00,
2013-01-03 10:03:00,29.0,21.0,30.30,WNW,290,5.0,9.0,69,-99.99,,,-99.99,,2013-01-03 16:03:00,
2013-01-03 10:12:00,30.0,21.0,30.31,NW,305,6.0,10.0,69,-99.99,,,-99.99,,2013-01-03 16:12:00,
2013-01-03 10:22:00,30.0,21.0,30.31,NW,305,6.0,10.0,69,-99.99,,,-99.99,,2013-01-03 16:22:00,
2013-01-03 10:33:00,30.0,21.0,30.32,NW,310,6.0,13.0,68,-99.99,,,-99.99,,2013-01-03 16:33:00,
2013-01-03 10:43:00,31.0,21.0,30.32,NNW,330,8.0,15.0,67,-99.99,,,-99.99,,2013-01-03 16:43:00,
2013-01-03 10:52:00,31.0,21.0,30.32,NNW,330,8.0,15.0,67,-99.99,,,-99.99,,2013-01-03 16:52:00,
2013-01-03 11:03:00,32.0,22.0,30.32,NW,320,5.0,12.0,66,-99.99,,,-99.99,,2013-01-03 17:03:00,
2013-01-03 11:12:00,33.0,22.0,30.32,NW,305,5.0,10.0,64,-99.99,,,-99.99,,2013-01-03 17:12:00,
2013-01-03 11:23:00,33.0,22.0,30.32,NW,305,5.0,10.0,64,-99.99,,,-99.99,,2013-01-03 17:23:00,
2013-01-03 11:33:00,34.0,22.0,30.32,WNW,285,5.0,10.0,62,-99.99,,,-99.99,,2013-01-03 17:33:00,
2013-01-03 11:43:00,35.0,22.0,30.31,West,280,5.0,8.0,59,-99.99,,,-99.99,,2013-01-03 17:43:00,
2013-01-03 11:53:00,35.0,22.0,30.31,West,280,5.0,8.0,59,-99.99,,,-99.99,,2013-01-03 17:53:00,
2013-01-03 12:03:00,36.0,22.0,30.31,WNW,285,6.0,10.0,57,-99.99,,,-99.99,,2013-01-03 18:03:00,
2013-01-03 12:13:00,37.0,22.0,30.31,NW,310,5.0,9.0,54,-99.99,,,-99.99,,2013-01-03 18:13:00,
2013-01-03 12:22:00,37.0,22.0,30.31,NW,310,5.0,9.0,54,-99.99,,,-99.99,,2013-01-03 18:22:00,
2013-01-03 12:33:00,38.0,22.0,30.30,WNW,290,8.0,12.0,53,-99.99,,,-99.99,,2013-01-03 18:33:00,
2013-01-03 12:42:00,38.0,22.0,30.30,West,280,9.0,11.0,52,-99.99,,,-99.99,,2013-01-03 18:42:00,
2013-01-03 12:53:00,38.0,22.0,30.30,West,280,9.0,11.0,52,-99.99,,,-99.99,,2013-01-03 18:53:00,
2013-01-03 13:03:00,39.0,22.0,30.29,NW,325,6.0,12.0,50,-99.99,,,-99.99,,2013-01-03 19:03:00,
2013-01-03 13:12:00,40.0,22.0,30.29,West,280,5.0,13.0,50,-99.99,,,-99.99,,2013-01-03 19:12:00,
2013-01-03 13:56:00,40.0,20.0,30.28,WNW,300,8.0,13.0,44,-99.99,,,-99.99,,2013-01-03 19:56:00,
2013-01-03 14:03:00,40.0,21.0,30.28,North,350,10.0,17.0,45,-99.99,,,-99.99,,2013-01-03 20:03:00,
2013-01-03 14:12:00,40.0,21.0,30.28,WNW,295,11.0,18.0,45,-99.99,,,-99.99,,2013-01-03 20:12:00,
2013-01-03 14:22:00,40.0,21.0,30.28,WNW,295,11.0,18.0,45,-99.99,,,-99.99,,2013-01-03 20:22:00,
2013-01-03 14:33:00,40.0,21.0,30.28,WNW,300,9.0,16.0,46,-99.99,,,-99.99,,2013-01-03 20:33:00,
2013-01-03 14:42:00,40.0,21.0,30.28,WNW,300,9.0,18.0,46,-99.99,,,-99.99,,2013-01-03 20:42:00,
2013-01-03 14:53:00,40.0,21.0,30.28,WNW,300,9.0,18.0,46,-99.99,,,-99.99,,2013-01-03 20:53:00,
2013-01-03 15:02:00,40.0,20.0,30.29,North,0,9.0,16.0,45,-99.99,,,-99.99,,2013-01-03 21:02:00,
2013-01-03 15:12:00,41.0,21.0,30.29,North,0,10.0,19.0,45,-99.99,,,-99.99,,2013-01-03 21:12:00,
2013-01-03 15:22:00,41.0,21.0,30.29,North,0,10.0,19.0,45,-99.99,,,-99.99,,2013-01-03 21:22:00,
2013-01-03 15:36:00,41.0,21.0,30.30,WNW,295,10.0,15.0,44,-99.99,,,-99.99,,2013-01-03 21:36:00,
2013-01-03 15:48:00,41.0,19.0,30.30,NNW,330,10.0,16.0,42,-99.99,,,-99.99,,2013-01-03 21:48:00,
2013-01-03 16:03:00,41.0,20.0,30.30,North,0,11.0,18.0,44,-99.99,,,-99.99,,2013-01-03 22:03:00,
2013-01-03 16:12:00,41.0,22.0,30.30,NNW,330,8.0,14.0,46,-99.99,,,-99.99,,2013-01-03 22:12:00,
2013-01-03 16:22:00,41.0,22.0,30.30,NNW,330,8.0,14.0,46,-99.99,,,-99.99,,2013-01-03 22:22:00,
2013-01-03 16:33:00,41.0,22.0,30.30,NW,325,5.0,12.0,46,-99.99,,,-99.99,,2013-01-03 22:33:00,
2013-01-03 16:42:00,40.0,22.0,30.30,WNW,300,8.0,14.0,47,-99.99,,,-99.99,,2013-01-03 22:42:00,
2013-01-03 16:52:00,40.0,22.0,30.30,WNW,300,8.0,14.0,47,-99.99,,,-99.99,,2013-01-03 22:52:00,
2013-01-03 17:03:00,40.0,22.0,30.31,WNW,300,5.0,11.0,49,-99.99,,,-99.99,,2013-01-03 23:03:00,
2013-01-03 17:12:00,40.0,22.0,30.31,NNW,330,4.0,11.0,49,-99.99,,,-99.99,,2013-01-03 23:12:00,
2013-01-03 17:22:00,40.0,22.0,30.31,NNW,330,4.0,11.0,49,-99.99,,,-99.99,,2013-01-03 23:22:00,
2013-01-03 17:33:00,39.0,23.0,30.31,NW,305,3.0,7.0,51,-99.99,,,-99.99,,2013-01-03 23:33:00,
2013-01-03 17:43:00,39.0,23.0,30.31,WNW,295,4.0,7.0,52,-99.99,,,-99.99,,2013-01-03 23:43:00,
2013-01-03 17:52:00,39.0,23.0,30.31,WNW,295,4.0,7.0,52,-99.99,,,-99.99,,2013-01-03 23:52:00,
2013-01-03 18:03:00,39.0,23.0,30.32,NW,325,2.0,5.0,52,-99.99,,,-99.99,,2013-01-04 00:03:00,
2013-01-03 18:12:00,38.0,22.0,30.32,NW,325,3.0,7.0,52,-99.99,,,-99.99,,2013-01-04 00:12:00,
2013-01-03 18:22:00,38.0,22.0,30.32,NW,325,3.0,7.0,52,-99.99,,,-99.99,,2013-01-04 00:22:00,
2013-01-03 18:32:00,38.0,23.0,30.32,NW,305,3.0,6.0,53,-99.99,,,-99.99,,2013-01-04 00:32:00,
2013-01-03 18:42:00,37.0,22.0,30.33,WNW,300,2.0,5.0,54,-99.99,,,-99.99,,2013-01-04 00:42:00,
2013-01-03 18:52:00,37.0,22.0,30.33,WNW,300,2.0,5.0,54,-99.99,,,-99.99,,2013-01-04 00:52:00,
2013-01-03 19:02:00,36.0,22.0,30.33,West,275,2.0,6.0,56,-99.99,,,-99.99,,2013-01-04 01:02:00,
2013-01-03 19:12:00,36.0,22.0,30.33,West,275,4.0,6.0,56,-99.99,,,-99.99,,2013-01-04 01:12:00,
2013-01-03 19:22:00,36.0,22.0,30.33,West,275,4.0,6.0,56,-99.99,,,-99.99,,2013-01-04 01:22:00,
2013-01-03 19:32:00,36.0,22.0,30.34,West,280,5.0,7.0,55,-99.99,,,-99.99,,2013-01-04 01:32:00,
2013-01-03 19:42:00,37.0,22.0,30.34,West,270,5.0,6.0,56,-99.99,,,-99.99,,2013-01-04 01:42:00,
2013-01-03 19:52:00,37.0,22.0,30.34,West,270,5.0,6.0,56,-99.99,,,-99.99,,2013-01-04 01:52:00,
2013-01-03 20:02:00,37.0,22.0,30.34,WNW,285,5.0,8.0,55,-99.99,,,-99.99,,2013-01-04 02:02:00,
2013-01-03 20:12:00,37.0,22.0,30.34,North,0,3.0,6.0,55,-99.99,,,-99.99,,2013-01-04 02:12:00,
2013-01-03 20:22:00,37.0,22.0,30.34,North,0,3.0,6.0,55,-99.99,,,-99.99,,2013-01-04 02:22:00,
2013-01-03 20:32:00,37.0,22.0,30.35,NNW,335,3.0,6.0,55,-99.99,,,-99.99,,2013-01-04 02:32:00,
2013-01-03 20:42:00,37.0,22.0,30.35,NW,315,3.0,5.0,55,-99.99,,,-99.99,,2013-01-04 02:42:00,
2013-01-03 20:52:00,37.0,22.0,30.35,NW,315,3.0,5.0,55,-99.99,,,-99.99,,2013-01-04 02:52:00,
2013-01-03 21:02:00,36.0,22.0,30.35,NW,325,2.0,5.0,56,-99.99,,,-99.99,,2013-01-04 03:02:00,
2013-01-03 21:12:00,36.0,22.0,30.35,NW,305,2.0,4.0,56,-99.99,,,-99.99,,2013-01-04 03:12:00,
2013-01-03 21:22:00,36.0,22.0,30.35,NW,305,2.0,4.0,56,-99.99,,,-99.99,,2013-01-04 03:22:00,
2013-01-03 21:32:00,36.0,22.0,30.35,West,275,2.0,3.0,57,-99.99,,,-99.99,,2013-01-04 03:32:00,
2013-01-03 21:42:00,36.0,22.0,30.35,West,280,2.0,4.0,58,-99.99,,,-99.99,,2013-01-04 03:42:00,
2013-01-03 21:52:00,36.0,22.0,30.35,West,280,2.0,4.0,58,-99.99,,,-99.99,,2013-01-04 03:52:00,
2013-01-03 22:02:00,36.0,22.0,30.34,WNW,290,4.0,6.0,57,-99.99,,,-99.99,,2013-01-04 04:02:00,
2013-01-03 22:12:00,36.0,22.0,30.35,WNW,300,3.0,5.0,57,-99.99,,,-99.99,,2013-01-04 04:12:00,
2013-01-03 22:22:00,36.0,22.0,30.35,WNW,300,3.0,5.0,57,-99.99,,,-99.99,,2013-01-04 04:22:00,
2013-01-03 22:32:00,36.0,21.0,30.34,NW,325,2.0,4.0,56,-99.99,,,-99.99,,2013-01-04 04:32:00,
2013-01-03 22:42:00,35.0,22.0,30.34,North,0,1.0,3.0,58,-99.99,,,-99.99,,2013-01-04 04:42:00,
2013-01-03 22:52:00,34.0,21.0,30.35,WNW,295,2.0,3.0,59,-99.99,,,-99.99,,2013-01-04 04:52:00,
2013-01-03 23:03:00,34.0,21.0,30.35,WNW,295,2.0,3.0,59,-99.99,,,-99.99,,2013-01-04 05:03:00,
2013-01-03 23:12:00,33.0,22.0,30.35,NW,310,3.0,4.0,62,-99.99,,,-99.99,,2013-01-04 05:12:00,
2013-01-03 23:22:00,33.0,22.0,30.35,NW,310,3.0,4.0,62,-99.99,,,-99.99,,2013-01-04 05:22:00,
2013-01-03 23:33:00,33.0,22.0,30.36,WNW,290,3.0,4.0,64,-99.99,,,-99.99,,2013-01-04 05:33:00,
2013-01-03 23:42:00,33.0,21.0,30.36,WNW,290,3.0,6.0,63,-99.99,,,-99.99,,2013-01-04 05:42:00,
2013-01-03 23:52:00,33.0,21.0,30.36,WNW,290,3.0,6.0,63,-99.99,,,-99.99,,2013-01-04 05:52:00,